Terminal Aerodrome Forecast
Issued by NWS Cleveland, OH

Home | Current Version | Previous Version | Graphics & Text | Print | Product List | Glossary Off
Versions: 1 2 3 4 5 6 7 8 9 10 11 12 13 14 15 16 17 18 19 20 21 22 23 24 25 26 27 28 29 30

000
FTUS41 KCLE 260040 AAC
TAFCLE
TAF AMD
KCLE 260040Z 2601/2706 26006KT 6SM -RA BR SCT025 OVC045
      TEMPO 2601/2604 1SM -RA BR BKN025
     FM260400 28006KT 6SM BR VCSH SCT008 OVC025
      TEMPO 2604/2608 4SM -RA BR OVC008
     FM260800 30008KT P6SM OVC008
     FM261400 28010KT P6SM SCT012 OVC025
     FM261800 28008KT P6SM BKN035 OVC060
     FM270000 28003KT P6SM BKN080=

USA.gov is the U.S. government's official web portal to all federal, state and local government web resources and services.